Time;durP1;ratioP1;P1;durP2;ratioP2;P2;SDS_P1;SDS_P2;PMS_P1;PMS_P2;Temp;Humidity;BMP_temperature;BMP_pressure;BME280_temperature;BME280_humidity;BME280_pressure;Samples;Min_cycle;Max_cycle;Signal;HPM_P1;HPM_P2
2022/01/01 00:00:28;;;;;;;6.47;4.10;;;;;;;-143.84;87.85;44712.06;5029558;28;20475;-74
2022/01/01 00:02:56;;;;;;;9.17;6.37;;;;;;;-143.84;88.01;44736.81;5029891;28;20535;-74
2022/01/01 00:05:24;;;;;;;5.47;4.80;;;;;;;;;;5029074;28;20497;-74
2022/01/01 00:07:51;;;;;;;7.90;4.93;;;;;;;-143.84;88.07;44706.34;5029198;28;20589;-74
2022/01/01 00:10:20;;;;;;;6.70;5.53;;;;;;;-143.84;87.85;44694.91;5028900;28;20447;-74
2022/01/01 00:12:48;;;;;;;4.80;4.40;;;;;;;-143.84;88.14;44712.06;5028988;28;20445;-74
2022/01/01 00:15:16;;;;;;;5.10;4.60;;;;;;;-143.84;87.98;44664.44;5028752;28;20496;-74
2022/01/01 00:17:45;;;;;;;4.40;4.00;;;;;;;-143.84;88.36;44645.41;5029013;28;20445;-74
2022/01/01 00:20:13;;;;;;;6.87;4.50;;;;;;;-143.84;87.99;44643.50;5028955;28;20919;-74
2022/01/01 00:22:41;;;;;;;6.07;5.37;;;;;;;-143.84;88.04;44624.47;5028891;28;20441;-74
2022/01/01 00:25:10;;;;;;;5.70;5.17;;;;;;;-143.84;88.02;44658.75;5029201;28;20526;-74
2022/01/01 00:27:38;;;;;;;5.50;4.40;;;;;;;-143.84;87.72;44736.81;5011815;28;20508;-74
2022/01/01 00:30:07;;;;;;;7.83;4.67;;;;;;;-143.84;87.73;44717.75;5028865;28;20447;-74
2022/01/01 00:32:34;;;;;;;4.83;4.37;;;;;;;-143.84;87.88;44675.88;5028914;28;20521;-74
2022/01/01 00:35:03;;;;;;;5.80;4.73;;;;;;;-143.84;87.47;44753.94;5028828;28;20488;-74
2022/01/01 00:37:31;;;;;;;4.80;4.20;;;;;;;-143.84;87.76;44734.91;5011212;28;20521;-74
2022/01/01 00:39:58;;;;;;;6.83;4.40;;;;;;;-143.84;87.79;44715.84;5028896;28;20878;-74
2022/01/01 00:42:25;;;;;;;4.57;4.17;;;;;;;-143.84;87.72;44725.38;5028798;28;20450;-74
2022/01/01 00:44:52;;;;;;;4.50;4.10;;;;;;;-143.84;87.55;44729.19;5028828;28;20443;-74
2022/01/01 00:47:20;;;;;;;6.30;4.37;;;;;;;-143.84;87.60;44797.72;5029035;28;20454;-74
2022/01/01 00:49:47;;;;;;;4.27;3.63;;;;;;;-143.84;87.59;44782.50;5029036;28;20957;-74
2022/01/01 00:52:15;;;;;;;5.73;3.43;;;;;;;-143.84;87.40;44744.41;5028852;28;20453;-74
2022/01/01 00:54:42;;;;;;;3.63;3.30;;;;;;;-143.84;87.67;44736.81;5029211;28;20797;-74
2022/01/01 00:57:10;;;;;;;5.00;4.03;;;;;;;-143.84;87.65;44746.31;5029351;28;20453;-74
2022/01/01 00:59:37;;;;;;;3.60;3.30;;;;;;;-143.84;87.82;44727.28;5029956;28;20480;-75
2022/01/01 01:02:04;;;;;;;8.47;3.97;;;;;;;-143.84;87.79;44721.56;5029509;28;20452;-75
2022/01/01 01:04:31;;;;;;;3.57;3.27;;;;;;;-143.84;87.90;44704.44;5031785;28;20458;-75
2022/01/01 01:06:58;;;;;;;4.30;3.47;;;;;;;-143.84;87.82;44740.59;5033769;28;20446;-75
2022/01/01 01:09:28;;;;;;;11.63;3.90;;;;;;;-143.84;87.54;44759.66;5033526;28;20448;-75
2022/01/01 01:11:56;;;;;;;4.00;3.70;;;;;;;-143.84;87.51;44774.88;5032886;28;20440;-75
2022/01/01 01:14:26;;;;;;;3.97;3.63;;;;;;;-143.84;87.30;44788.22;5032882;28;20490;-75
2022/01/01 01:16:54;;;;;;;3.93;3.63;;;;;;;-143.84;87.62;44763.47;5032764;28;20552;-75
2022/01/01 01:19:22;;;;;;;5.27;3.87;;;;;;;-143.84;87.70;44752.03;5032596;28;20440;-75
2022/01/01 01:21:50;;;;;;;4.73;3.33;;;;;;;;;;5032778;28;20441;-75
2022/01/01 01:24:19;;;;;;;3.17;2.97;;;;;;;-143.84;87.57;44742.50;5032796;28;20441;-74
2022/01/01 01:26:50;;;;;;;4.33;3.90;;;;;;;-143.84;87.76;44750.13;5032506;28;20438;-75
2022/01/01 01:29:18;;;;;;;5.13;4.43;;;;;;;-143.84;87.64;44736.81;5032496;28;20455;-75
2022/01/01 01:31:46;;;;;;;4.10;3.60;;;;;;;-143.84;87.79;44719.66;5032357;28;20447;-75
2022/01/01 01:34:13;;;;;;;6.90;3.83;;;;;;;-143.84;87.41;44765.34;5032066;28;20489;-75
2022/01/01 01:36:40;;;;;;;3.97;3.57;;;;;;;-143.84;87.51;44786.31;5032227;28;20490;-75
2022/01/01 01:39:07;;;;;;;4.13;3.80;;;;;;;-143.84;87.61;44731.09;5032234;28;20501;-74
2022/01/01 01:41:34;;;;;;;5.73;4.20;;;;;;;-143.84;87.48;44778.69;5032299;28;20449;-74
2022/01/01 01:44:22;;;;;;;5.03;4.07;;;;;;;-143.84;87.17;44753.94;5031992;28;20960;-74
2022/01/01 01:46:49;;;;;;;5.43;4.33;;;;;;;-143.84;87.31;44771.06;5017176;28;20459;-74
2022/01/01 01:49:16;;;;;;;3.83;3.50;;;;;;;-143.84;87.32;44795.81;5032062;28;20475;-75
2022/01/01 01:51:44;;;;;;;4.10;3.80;;;;;;;-143.84;87.32;44795.81;5031691;28;20440;-75
2022/01/01 01:54:13;;;;;;;5.40;3.83;;;;;;;-143.84;87.43;44793.91;5032027;28;20444;-75
2022/01/01 01:56:40;;;;;;;5.23;4.23;;;;;;;-143.84;87.03;44812.97;5031901;28;20558;-75
2022/01/01 01:59:10;;;;;;;5.23;3.63;;;;;;;-143.84;87.24;44782.50;5031987;28;20469;-75
2022/01/01 02:01:37;;;;;;;4.53;3.83;;;;;;;-143.84;87.50;44753.94;5031792;28;20440;-75
2022/01/01 02:04:04;;;;;;;4.87;4.03;;;;;;;-143.84;87.04;44797.72;5031471;28;20448;-75
2022/01/01 02:06:32;;;;;;;4.20;3.80;;;;;;;-143.84;87.64;44776.78;5031411;28;21029;-74
2022/01/01 02:08:59;;;;;;;5.30;3.97;;;;;;;-143.84;87.33;44799.63;5031520;28;20454;-74
2022/01/01 02:11:26;;;;;;;6.37;3.60;;;;;;;-143.84;87.62;44765.34;5031504;28;20438;-75
2022/01/01 02:17:07;;;;;;;6.13;4.10;;;;;;;-143.84;86.93;44824.38;5024069;28;21114;-75
2022/01/01 02:19:47;;;;;;;6.70;4.10;;;;;;;-143.84;87.29;44772.97;5031430;28;20464;-75
2022/01/01 02:22:15;;;;;;;4.83;4.30;;;;;;;-143.84;87.32;44820.56;5031367;28;20470;-75
2022/01/01 02:24:43;;;;;;;4.90;3.77;;;;;;;-143.84;87.52;44793.91;5031125;28;20983;-74
2022/01/01 02:27:11;;;;;;;8.40;5.00;;;;;;;-143.84;87.53;44801.53;5031313;28;20446;-74
2022/01/01 02:29:39;;;;;;;5.50;4.30;;;;;;;-143.84;87.24;44807.25;5031436;28;20444;-75
2022/01/01 02:32:10;;;;;;;4.90;4.13;;;;;;;-143.84;87.13;44845.31;5031423;28;20524;-74
2022/01/01 02:34:37;;;;;;;4.13;3.83;;;;;;;-143.84;87.03;44828.19;5031278;28;20498;-75
2022/01/01 02:37:05;;;;;;;4.10;3.70;;;;;;;-143.84;86.79;44883.41;5031039;28;20489;-75
2022/01/01 02:39:33;;;;;;;4.27;3.70;;;;;;;-143.84;86.76;44877.69;5030949;28;20500;-74
2022/01/01 02:42:01;;;;;;;4.43;4.03;;;;;;;-143.84;86.75;44881.50;5030851;28;20445;-74
2022/01/01 02:44:29;;;;;;;10.43;3.77;;;;;;;-143.84;87.01;44854.84;5030915;28;20490;-74
2022/01/01 02:46:56;;;;;;;4.73;4.33;;;;;;;-143.84;86.85;44849.13;5031417;28;20451;-77
2022/01/01 02:49:24;;;;;;;3.80;3.50;;;;;;;-143.84;86.97;44862.47;5031823;28;20461;-76
2022/01/01 02:51:51;;;;;;;4.13;3.50;;;;;;;-143.84;86.99;44828.19;5031975;28;20823;-76
2022/01/01 02:54:18;;;;;;;4.83;3.87;;;;;;;-143.84;86.79;44854.84;5032063;28;20437;-76
2022/01/01 02:56:48;;;;;;;7.53;4.27;;;;;;;-143.84;87.11;44841.53;5031721;28;20874;-76
2022/01/01 02:59:15;;;;;;;4.23;3.87;;;;;;;-143.84;87.33;44809.16;5032037;28;20464;-76
2022/01/01 03:01:43;;;;;;;5.90;3.50;;;;;;;-143.84;87.19;44839.63;5031538;28;20475;-76
2022/01/01 03:04:10;;;;;;;3.90;3.10;;;;;;;-143.84;87.66;44805.34;5031608;28;20448;-76
2022/01/01 03:06:37;;;;;;;5.40;3.90;;;;;;;-143.84;87.73;44759.66;5031663;28;20438;-76
2022/01/01 03:09:05;;;;;;;4.43;3.97;;;;;;;-143.84;87.59;44790.13;5031466;28;20431;-76
2022/01/01 03:11:32;;;;;;;4.13;3.73;;;;;;;-143.84;87.33;44811.06;5031776;28;20435;-76
2022/01/01 03:14:01;;;;;;;4.93;4.23;;;;;;;-143.84;87.47;44805.34;5031100;28;20490;-76
2022/01/01 03:16:28;;;;;;;4.40;4.03;;;;;;;-143.84;87.62;44788.22;5031959;28;20484;-77
2022/01/01 03:18:55;;;;;;;5.03;4.00;;;;;;;-143.84;87.59;44761.56;5031794;28;20443;-77
2022/01/01 03:21:22;;;;;;;3.30;3.10;;;;;;;-143.84;87.66;44780.59;5031827;28;20438;-77
2022/01/01 03:23:49;;;;;;;5.07;4.17;;;;;;;-143.84;87.45;44774.88;5032254;28;20441;-73
2022/01/01 03:26:16;;;;;;;3.63;3.37;;;;;;;-143.84;87.35;44814.88;5031766;28;20509;-73
2022/01/01 03:28:44;;;;;;;4.47;3.60;;;;;;;-143.84;87.31;44809.16;5032020;28;20517;-73
2022/01/01 03:31:12;;;;;;;5.17;4.47;;;;;;;-143.84;87.54;44795.81;5032077;28;20446;-73
2022/01/01 03:33:39;;;;;;;3.73;3.20;;;;;;;-143.84;87.25;44793.91;5040827;28;20468;-73
2022/01/01 03:36:07;;;;;;;5.00;4.30;;;;;;;-143.84;87.31;44801.53;5051967;28;20492;-73
2022/01/01 03:38:34;;;;;;;5.13;4.30;;;;;;;-143.84;86.99;44845.31;5051795;28;20817;-73
2022/01/01 03:41:01;;;;;;;5.07;3.60;;;;;;;-143.84;87.36;44792.00;5051891;28;20441;-73
2022/01/01 03:43:29;;;;;;;4.37;3.97;;;;;;;-143.84;86.99;44828.19;5051711;28;20885;-73
2022/01/01 03:45:56;;;;;;;5.30;3.83;;;;;;;-143.84;87.08;44835.81;5051530;28;20494;-73
2022/01/01 03:48:25;;;;;;;5.57;3.90;;;;;;;-143.84;87.27;44826.28;5051688;28;20471;-73
2022/01/01 03:50:52;;;;;;;4.40;3.80;;;;;;;-143.84;87.26;44816.78;5051648;28;20451;-73
2022/01/01 03:53:19;;;;;;;5.70;4.20;;;;;;;-143.84;87.12;44807.25;5051628;28;20440;-73
2022/01/01 03:55:46;;;;;;;3.73;3.43;;;;;;;-143.84;87.11;44822.47;5050636;28;20502;-76
2022/01/01 03:58:13;;;;;;;3.60;3.30;;;;;;;-143.84;86.76;44847.22;5050280;28;20957;-77
2022/01/01 04:00:41;;;;;;;6.87;3.60;;;;;;;-143.84;86.90;44849.13;5050279;28;20503;-76
2022/01/01 04:03:09;;;;;;;4.60;4.20;;;;;;;-143.84;86.52;44849.13;5050237;28;20434;-76
2022/01/01 04:05:40;;;;;;;7.13;3.70;;;;;;;-143.84;86.59;44875.78;5050301;28;20435;-76
2022/01/01 04:08:08;;;;;;;6.30;3.73;;;;;;;-143.84;86.43;44911.97;5050044;28;20456;-76
2022/01/01 04:10:36;;;;;;;4.97;3.30;;;;;;;-143.84;85.83;44925.31;5050028;28;20454;-76
2022/01/01 04:13:05;;;;;;;4.37;3.23;;;;;;;-143.84;86.14;44950.06;5050093;28;20837;-76
2022/01/01 04:15:33;;;;;;;4.60;3.80;;;;;;;-143.84;86.48;44919.59;5049339;28;20492;-76
2022/01/01 04:18:04;;;;;;;4.70;3.20;;;;;;;-143.84;86.10;44904.34;5049841;28;20493;-77
2022/01/01 04:20:31;;;;;;;4.37;3.27;;;;;;;-143.84;86.46;44917.69;5050285;28;20548;-76
2022/01/01 04:23:00;;;;;;;4.13;3.73;;;;;;;-143.84;86.28;44889.13;5049894;28;20443;-76
2022/01/01 04:25:28;;;;;;;4.00;3.60;;;;;;;-143.84;86.24;44898.66;5049779;28;20510;-76
2022/01/01 04:27:57;;;;;;;3.53;3.23;;;;;;;-143.84;86.05;44946.25;5049758;28;21031;-76
2022/01/01 04:30:25;;;;;;;5.30;3.67;;;;;;;-143.84;86.09;44896.75;5049815;28;21006;-76
2022/01/01 04:32:52;;;;;;;3.47;3.17;;;;;;;-143.84;86.25;44892.94;5042150;28;20715;-76
2022/01/01 04:35:19;;;;;;;2.93;2.70;;;;;;;-143.84;86.42;44870.09;5049879;28;20502;-76
2022/01/01 04:37:46;;;;;;;3.90;3.60;;;;;;;-143.84;86.50;44881.50;5049741;28;20492;-76
2022/01/01 04:40:15;;;;;;;4.63;3.03;;;;;;;-143.84;86.65;44915.78;5049630;28;20432;-76
2022/01/01 04:42:42;;;;;;;5.37;3.40;;;;;;;-143.84;86.69;44885.31;5049449;28;20461;-76
2022/01/01 04:45:11;;;;;;;3.33;2.80;;;;;;;-143.84;86.80;44877.69;5049828;28;20444;-76
2022/01/01 04:47:38;;;;;;;4.20;3.30;;;;;;;-143.84;86.42;44852.94;5049491;28;20460;-76
2022/01/01 04:50:07;;;;;;;3.20;2.90;;;;;;;-143.84;86.49;44862.47;5049550;28;20449;-76
2022/01/01 04:52:34;;;;;;;3.70;3.40;;;;;;;-143.84;86.62;44894.84;5049403;28;20494;-76
2022/01/01 04:55:02;;;;;;;3.10;2.90;;;;;;;-143.84;86.76;44883.41;5049585;28;20893;-76
2022/01/01 04:57:30;;;;;;;4.27;3.00;;;;;;;-143.84;86.76;44896.75;5049704;28;20500;-76
2022/01/01 04:59:58;;;;;;;5.10;3.20;;;;;;;-143.84;86.79;44885.31;5049203;28;20538;-76
2022/01/01 05:02:26;;;;;;;6.23;3.23;;;;;;;-143.84;86.75;44866.28;5049919;28;20548;-76
2022/01/01 05:04:54;;;;;;;3.60;3.30;;;;;;;-143.84;86.78;44854.84;5050120;28;20526;-80
2022/01/01 05:07:21;;;;;;;3.93;3.53;;;;;;;-143.84;86.57;44885.31;5050601;28;20887;-77
2022/01/01 05:09:48;;;;;;;13.00;4.00;;;;;;;-143.84;86.66;44889.13;5049741;28;20503;-76
2022/01/01 05:12:15;;;;;;;4.20;3.50;;;;;;;-143.84;86.43;44870.09;5050368;28;20957;-77
2022/01/01 05:14:45;;;;;;;6.60;3.50;;;;;;;-143.84;86.48;44873.88;5042712;28;20477;-76
2022/01/01 05:17:14;;;;;;;3.77;2.80;;;;;;;-143.84;86.79;44860.56;5050149;28;20479;-76
2022/01/01 05:19:41;;;;;;;3.73;3.10;;;;;;;-143.84;87.01;44849.13;5050044;28;21255;-76
2022/01/01 05:22:08;;;;;;;4.00;3.60;;;;;;;-143.84;87.24;44841.53;5049473;28;20428;-74
2022/01/01 05:24:35;;;;;;;4.63;3.53;;;;;;;-143.84;87.16;44811.06;5048377;28;20453;-74
2022/01/01 05:27:03;;;;;;;4.47;3.80;;;;;;;-143.84;87.44;44847.22;5048528;28;20945;-74
2022/01/01 05:29:30;;;;;;;3.23;3.03;;;;;;;-143.84;87.41;44805.34;5031133;28;20455;-74
2022/01/01 05:31:58;;;;;;;4.07;3.67;;;;;;;-143.84;87.47;44793.91;5048724;28;20941;-74
2022/01/01 05:34:25;;;;;;;4.83;4.00;;;;;;;-143.84;87.24;44812.97;5030625;28;20499;-74
2022/01/01 05:36:52;;;;;;;4.53;4.10;;;;;;;-143.84;87.45;44832.00;5028308;28;20538;-74
2022/01/01 05:39:20;;;;;;;4.23;3.80;;;;;;;-143.84;87.62;44771.06;5028561;28;20440;-74
2022/01/01 05:41:52;;;;;;;3.60;3.33;;;;;;;-143.84;87.57;44822.47;5028412;28;20454;-74
2022/01/01 05:44:19;;;;;;;4.00;3.30;;;;;;;-143.84;87.39;44753.94;5028421;28;20453;-74
2022/01/01 05:46:46;;;;;;;4.17;3.83;;;;;;;-143.84;87.22;44792.00;5028873;28;21108;-74
2022/01/01 05:49:15;;;;;;;5.93;4.10;;;;;;;-143.84;87.23;44820.56;5028248;28;20450;-74
2022/01/01 05:51:42;;;;;;;7.27;3.67;;;;;;;-143.84;87.05;44839.63;5031656;28;20450;-75
2022/01/01 05:54:09;;;;;;;4.53;3.90;;;;;;;-143.84;86.47;44881.50;5031905;28;20443;-75
2022/01/01 05:56:37;;;;;;;4.27;3.83;;;;;;;-143.84;86.33;44910.06;5031657;28;21017;-74
2022/01/01 05:59:04;;;;;;;3.90;3.50;;;;;;;-143.84;86.26;44870.09;5031528;28;20500;-74
2022/01/01 06:01:31;;;;;;;4.20;3.50;;;;;;;-143.84;86.03;44919.59;5031695;28;20868;-75
2022/01/01 06:03:58;;;;;;;3.77;3.47;;;;;;;-143.84;86.12;44892.94;5032002;28;20521;-75
2022/01/01 06:06:27;;;;;;;4.27;3.87;;;;;;;-143.84;86.51;44891.03;5031720;28;20507;-74
2022/01/01 06:08:54;;;;;;;4.57;4.27;;;;;;;-143.84;86.37;44896.75;5031749;28;20443;-75
2022/01/01 06:11:21;;;;;;;5.87;4.37;;;;;;;-143.84;86.34;44932.91;5031422;28;20504;-75
2022/01/01 06:13:48;;;;;;;5.40;3.57;;;;;;;-143.84;86.28;44934.81;5031176;28;20461;-74
2022/01/01 06:16:15;;;;;;;10.50;3.70;;;;;;;-143.84;86.06;44908.16;5031491;28;20428;-75
2022/01/01 06:18:42;;;;;;;4.87;4.37;;;;;;;-143.84;85.88;44923.41;5031295;28;20486;-75
2022/01/01 06:21:10;;;;;;;5.30;4.03;;;;;;;-143.84;86.16;44944.34;5031284;28;20441;-75
2022/01/01 06:23:40;;;;;;;5.90;3.33;;;;;;;-143.84;86.32;44927.19;5031028;28;20458;-75
2022/01/01 06:26:07;;;;;;;3.77;3.43;;;;;;;-143.84;86.36;44951.97;5031154;28;20604;-75
2022/01/01 06:28:35;;;;;;;3.50;3.20;;;;;;;-143.84;85.99;44931.00;5031056;28;20453;-74
2022/01/01 06:31:03;;;;;;;8.63;4.90;;;;;;;-143.84;86.26;44908.16;5031129;28;20462;-74
2022/01/01 06:33:30;;;;;;;4.07;3.70;;;;;;;-143.84;85.99;44898.66;5031178;28;20944;-75
2022/01/01 06:35:57;;;;;;;5.23;3.10;;;;;;;-143.84;86.40;44911.97;5030955;28;20454;-74
2022/01/01 06:38:24;;;;;;;3.53;3.23;;;;;;;-143.84;86.51;44904.34;5031113;28;20543;-75
2022/01/01 06:40:53;;;;;;;8.17;4.23;;;;;;;-143.84;86.31;44900.53;5031008;28;20453;-74
2022/01/01 06:43:23;;;;;;;4.07;3.70;;;;;;;-143.84;86.51;44885.31;5030943;28;20461;-75
2022/01/01 06:45:50;;;;;;;3.30;3.00;;;;;;;-143.84;86.54;44868.19;5030852;28;20442;-74
2022/01/01 06:48:18;;;;;;;3.43;3.13;;;;;;;-143.84;86.52;44847.22;5031021;28;20554;-75
2022/01/01 06:50:45;;;;;;;4.30;3.30;;;;;;;-143.84;86.48;44902.44;5030693;28;20457;-75
2022/01/01 06:53:12;;;;;;;3.60;3.30;;;;;;;-143.84;86.62;44833.91;5030716;28;20440;-75
2022/01/01 06:55:40;;;;;;;3.33;3.03;;;;;;;-143.84;86.56;44879.59;5030950;28;20447;-75
2022/01/01 06:58:09;;;;;;;2.80;2.60;;;;;;;-143.84;86.24;44900.53;5030530;28;20568;-75
2022/01/01 07:00:37;;;;;;;3.80;3.00;;;;;;;-143.84;86.35;44913.88;5031722;28;20457;-73
2022/01/01 07:03:05;;;;;;;4.00;2.60;;;;;;;-143.84;86.28;44902.44;5031206;28;20487;-74
2022/01/01 07:05:32;;;;;;;3.00;2.80;;;;;;;-143.84;86.46;44883.41;5032820;28;20520;-74
2022/01/01 07:07:59;;;;;;;2.80;2.60;;;;;;;-143.84;85.94;44934.81;5032247;28;20450;-73
2022/01/01 07:10:26;;;;;;;3.53;3.23;;;;;;;-143.84;85.86;44950.06;5031814;28;20441;-73
2022/01/01 07:12:53;;;;;;;3.10;2.90;;;;;;;-143.84;85.93;44925.31;5032512;28;20456;-74
2022/01/01 07:15:22;;;;;;;5.10;3.03;;;;;;;-143.84;86.22;44942.44;5031789;28;20478;-74
2022/01/01 07:17:49;;;;;;;4.30;3.70;;;;;;;-143.84;85.67;44953.88;5032258;28;20480;-74
2022/01/01 07:20:16;;;;;;;5.37;3.20;;;;;;;-143.84;85.92;44942.44;5032250;28;20524;-75
2022/01/01 07:22:46;;;;;;;5.93;3.87;;;;;;;-143.84;85.95;44896.75;5032353;28;20866;-75
2022/01/01 07:25:15;;;;;;;3.33;3.03;;;;;;;-143.84;86.46;44900.53;5032014;28;20449;-74
2022/01/01 07:27:43;;;;;;;4.33;3.70;;;;;;;-143.84;86.63;44875.78;5032137;28;20876;-73
2022/01/01 07:30:11;;;;;;;3.30;3.00;;;;;;;-143.84;86.67;44896.75;5031598;28;20442;-73
2022/01/01 07:32:42;;;;;;;3.97;3.10;;;;;;;-143.84;86.54;44881.50;5032063;28;20434;-74
2022/01/01 07:35:10;;;;;;;4.00;3.73;;;;;;;-143.84;86.68;44877.69;5032322;28;20431;-73
2022/01/01 07:37:37;;;;;;;5.40;4.10;;;;;;;-143.84;86.42;44862.47;5031628;28;20476;-74
2022/01/01 07:40:07;;;;;;;3.63;3.30;;;;;;;-143.84;86.09;44932.91;5032034;28;20445;-74
2022/01/01 07:42:35;;;;;;;5.33;3.60;;;;;;;-143.84;86.11;44870.09;5031892;28;20461;-74
2022/01/01 07:45:02;;;;;;;3.87;3.30;;;;;;;-143.84;85.96;44894.84;5031345;28;20439;-73
2022/01/01 07:47:29;;;;;;;3.57;3.27;;;;;;;-143.84;85.84;44959.56;5031647;28;20943;-74
2022/01/01 07:49:58;;;;;;;3.53;3.23;;;;;;;-143.84;85.63;44959.56;5031608;28;20442;-74
2022/01/01 07:52:26;;;;;;;5.13;3.17;;;;;;;-143.84;85.36;44984.31;5031670;28;20440;-74
2022/01/01 07:54:53;;;;;;;3.50;2.73;;;;;;;-143.84;85.43;44965.28;5031065;28;20977;-74
2022/01/01 07:57:20;;;;;;;3.60;3.30;;;;;;;-143.84;85.37;44959.56;5031191;28;20479;-74
2022/01/01 07:59:47;;;;;;;8.53;4.43;;;;;;;-143.84;84.95;44959.56;5031519;28;20495;-73
2022/01/01 08:02:14;;;;;;;3.43;3.13;;;;;;;-143.84;85.52;44961.47;5031253;28;20441;-73
2022/01/01 08:04:42;;;;;;;4.27;3.87;;;;;;;-143.84;85.56;44955.75;5031265;28;20935;-74
2022/01/01 08:07:10;;;;;;;4.67;3.40;;;;;;;-143.84;85.69;44944.34;5031267;28;20447;-74
2022/01/01 08:09:38;;;;;;;4.70;3.50;;;;;;;-143.84;85.52;44929.09;5030788;28;20442;-73
2022/01/01 08:12:07;;;;;;;4.53;3.23;;;;;;;-143.84;85.48;44925.31;5031051;28;20441;-73
2022/01/01 08:14:35;;;;;;;4.73;4.33;;;;;;;-143.84;85.48;44946.25;5030498;28;20524;-73
2022/01/01 08:17:04;;;;;;;3.90;3.27;;;;;;;-143.84;85.68;44902.44;5031219;28;20450;-74
2022/01/01 08:19:32;;;;;;;4.50;4.10;;;;;;;-143.84;86.20;44887.22;5030878;28;20457;-74
2022/01/01 08:21:59;;;;;;;4.60;4.20;;;;;;;-143.84;86.18;44891.03;5030443;28;20499;-73
2022/01/01 08:24:29;;;;;;;4.80;4.30;;;;;;;-143.84;86.42;44898.66;5030652;28;20438;-74
2022/01/01 08:26:56;;;;;;;4.03;3.73;;;;;;;-143.84;86.31;44866.28;5031145;28;20963;-74
2022/01/01 08:29:24;;;;;;;15.27;5.00;;;;;;;-143.84;86.77;44847.22;5030781;28;20458;-73
2022/01/01 08:31:51;;;;;;;4.40;4.03;;;;;;;-143.84;86.89;44833.91;5030688;28;20453;-74
2022/01/01 08:34:20;;;;;;;6.13;5.43;;;;;;;-143.84;86.69;44832.00;5030793;28;20443;-73
2022/01/01 08:36:47;;;;;;;5.93;5.43;;;;;;;-143.84;86.91;44822.47;5030480;28;20589;-74
2022/01/01 08:39:15;;;;;;;4.60;4.20;;;;;;;-143.84;87.36;44793.91;5030584;28;20561;-73
2022/01/01 08:41:45;;;;;;;6.00;4.67;;;;;;;-143.84;87.50;44715.84;5030447;28;20442;-73
2022/01/01 08:44:13;;;;;;;4.57;4.17;;;;;;;-143.84;88.33;44687.28;5013032;28;20970;-73
2022/01/01 08:46:40;;;;;;;5.53;3.63;;;;;;;-143.84;88.26;44658.75;5030581;28;20568;-73
2022/01/01 08:49:07;;;;;;;8.37;4.33;;;;;;;-143.84;88.93;44527.38;5030617;28;20458;-73
2022/01/01 08:51:35;;;;;;;5.03;4.53;;;;;;;-143.84;88.71;44578.78;5030431;28;21028;-73
2022/01/01 08:54:03;;;;;;;17.90;10.03;;;;;;;-143.84;89.36;44416.94;5030511;28;20973;-73
2022/01/01 08:56:30;;;;;;;9.30;6.20;;;;;;;-143.84;89.18;44422.66;5030471;28;20439;-74
2022/01/01 08:58:59;;;;;;;8.67;7.53;;;;;;;-143.84;89.50;44352.22;5030252;28;20488;-74
2022/01/01 09:01:27;;;;;;;6.40;4.97;;;;;;;-143.84;89.98;44283.69;5030194;28;20441;-73
2022/01/01 09:03:54;;;;;;;4.23;3.83;;;;;;;-143.84;89.78;44247.50;5029675;28;20441;-73
2022/01/01 09:06:21;;;;;;;6.00;4.90;;;;;;;-143.84;89.90;44198.00;5030393;28;20449;-74
2022/01/01 09:08:49;;;;;;;5.40;4.10;;;;;;;-143.84;90.07;44177.06;5030209;28;20441;-73
2022/01/01 09:11:16;;;;;;;4.10;3.77;;;;;;;-143.84;89.84;44177.06;5030146;28;20978;-73
2022/01/01 09:13:44;;;;;;;6.83;4.70;;;;;;;-143.84;90.50;44110.44;5030050;28;20446;-74
2022/01/01 09:16:14;;;;;;;4.87;4.37;;;;;;;-143.84;90.61;44051.44;5030293;28;20440;-73
2022/01/01 09:18:42;;;;;;;4.30;3.90;;;;;;;-143.84;90.84;44017.16;5030472;28;20884;-73
2022/01/01 09:21:09;;;;;;;6.13;4.40;;;;;;;-143.84;90.80;44036.22;5030320;28;20441;-74
2022/01/01 09:23:37;;;;;;;7.03;5.50;;;;;;;-143.84;90.79;44024.78;5030225;28;20836;-73
2022/01/01 09:26:04;;;;;;;7.63;5.33;;;;;;;-143.84;90.27;44028.59;5032859;28;20449;-73
2022/01/01 09:28:33;;;;;;;8.03;6.40;;;;;;;-143.84;90.11;44184.69;5034066;28;20434;-74
2022/01/01 09:31:02;;;;;;;10.17;7.33;;;;;;;-143.84;89.81;44165.66;5034364;28;20931;-73
2022/01/01 09:33:31;;;;;;;6.90;5.90;;;;;;;-143.84;89.72;44213.25;5034025;28;20446;-74
2022/01/01 09:35:59;;;;;;;4.53;4.13;;;;;;;-143.84;89.28;44386.47;5033880;28;20947;-73
2022/01/01 09:38:26;;;;;;;4.93;3.90;;;;;;;-143.84;89.13;44386.47;5033761;28;20832;-74
2022/01/01 09:40:55;;;;;;;4.67;3.83;;;;;;;-143.84;89.26;44386.47;5033790;28;20452;-73
2022/01/01 09:43:23;;;;;;;5.73;4.90;;;;;;;-143.84;89.44;44321.75;5033494;28;20446;-73
2022/01/01 09:45:51;;;;;;;4.10;3.80;;;;;;;-143.84;88.83;44413.13;5033479;28;20453;-73
2022/01/01 09:48:20;;;;;;;3.70;3.40;;;;;;;-143.84;88.90;44405.53;5033663;28;20472;-73
2022/01/01 09:50:53;;;;;;;7.77;4.60;;;;;;;-143.84;88.87;44460.72;5033737;28;20440;-73
2022/01/01 09:53:20;;;;;;;5.33;4.83;;;;;;;-143.84;88.90;44407.44;5033553;28;20437;-73
2022/01/01 09:55:48;;;;;;;6.20;5.23;;;;;;;-143.84;88.27;44512.13;5033558;28;20809;-74
2022/01/01 09:58:15;;;;;;;6.37;4.90;;;;;;;-143.84;88.04;44637.78;5033274;28;20483;-73
2022/01/01 10:00:43;;;;;;;10.63;5.23;;;;;;;-143.84;87.28;44708.25;5033434;28;21265;-73
2022/01/01 10:03:13;;;;;;;7.67;5.63;;;;;;;-143.84;86.98;44753.94;5033193;28;20443;-73
2022/01/01 10:06:09;;;;;;;5.03;4.43;;;;;;;-143.84;86.28;44784.41;5033605;28;20517;-74
2022/01/01 10:08:38;;;;;;;4.50;4.10;;;;;;;-143.84;84.60;44957.66;5033308;28;20464;-73
2022/01/01 10:11:05;;;;;;;6.03;4.53;;;;;;;-143.84;84.23;44963.38;5033150;28;20488;-74
2022/01/01 10:13:36;;;;;;;3.90;3.60;;;;;;;-143.84;84.64;44984.31;5032868;28;20439;-74
2022/01/01 10:16:05;;;;;;;5.17;4.63;;;;;;;-143.84;84.53;44999.56;5013299;28;20525;-73
2022/01/01 10:18:35;;;;;;;4.00;3.67;;;;;;;-143.84;84.94;44950.06;4996080;28;20486;-74
2022/01/01 10:21:05;;;;;;;4.83;4.20;;;;;;;-143.84;85.06;44940.53;5013704;28;20450;-73
2022/01/01 10:23:34;;;;;;;4.23;3.90;;;;;;;-143.84;85.83;44902.44;5013744;28;20458;-74
2022/01/01 10:29:11;;;;;;;5.97;4.60;;;;;;;-143.84;86.65;44811.06;5011857;28;20847;-76
2022/01/01 10:31:40;;;;;;;3.80;3.50;;;;;;;-143.84;87.37;44761.56;5011896;28;20435;-75
2022/01/01 10:34:12;;;;;;;4.60;4.20;;;;;;;-143.84;86.83;44780.59;5011854;28;20988;-76
2022/01/01 10:36:44;;;;;;;9.23;4.13;;;;;;;-143.84;86.08;44870.09;5011069;28;20470;-76
2022/01/01 10:39:13;;;;;;;3.57;3.27;;;;;;;-143.84;85.04;44955.75;5010787;28;20838;-76
2022/01/01 10:41:50;;;;;;;5.43;4.93;;;;;;;-143.84;83.90;45007.19;5010974;28;21402;-76
2022/01/01 10:44:21;;;;;;;3.77;3.33;;;;;;;-143.84;83.86;44993.84;5011610;28;20509;-76
2022/01/01 10:46:49;;;;;;;4.80;4.00;;;;;;;-143.84;83.73;45018.59;5011523;28;20505;-76
2022/01/01 10:49:34;;;;;;;6.20;4.17;;;;;;;-143.84;83.49;45009.09;5011080;28;20456;-76
2022/01/01 10:52:27;;;;;;;6.10;4.93;;;;;;;-143.84;83.62;44999.56;5011658;28;20454;-76
2022/01/01 10:54:56;;;;;;;8.00;4.30;;;;;;;-143.84;83.28;45058.59;5011155;28;20501;-76
2022/01/01 10:57:29;;;;;;;5.63;4.20;;;;;;;-143.84;82.92;45033.84;5011118;28;20443;-76
2022/01/01 11:00:12;;;;;;;5.60;4.43;;;;;;;-143.84;82.75;45016.69;5011064;28;20479;-76
2022/01/01 11:02:42;;;;;;;8.50;4.03;;;;;;;-143.84;82.37;45039.53;5011228;28;20486;-76
2022/01/01 11:05:09;;;;;;;7.10;5.37;;;;;;;-143.84;81.54;45102.38;5011190;28;20444;-76
2022/01/01 11:07:49;;;;;;;5.87;5.23;;;;;;;-143.84;80.65;45094.78;5010949;28;20845;-76
2022/01/01 11:10:17;;;;;;;6.47;5.60;;;;;;;-143.84;80.65;45075.72;5010688;28;20459;-76
2022/01/01 11:12:45;;;;;;;8.27;5.27;;;;;;;-143.84;80.51;45142.38;5010632;28;20482;-76
2022/01/01 11:15:13;;;;;;;9.17;5.37;;;;;;;-143.84;80.60;45071.91;5023911;28;20497;-76
2022/01/01 11:17:42;;;;;;;7.47;5.63;;;;;;;-143.84;80.74;45068.13;4996334;28;20927;-76
2022/01/01 11:20:10;;;;;;;5.13;4.23;;;;;;;-143.84;80.91;45068.13;4990974;28;21075;-76
2022/01/01 11:22:39;;;;;;;3.70;3.40;;;;;;;-143.84;80.50;45090.97;4991449;28;20848;-76
2022/01/01 11:25:07;;;;;;;6.03;3.93;;;;;;;-143.84;81.32;45085.25;4990832;28;20970;-75
2022/01/01 11:27:35;;;;;;;8.03;6.00;;;;;;;-143.84;81.18;45054.78;4990840;28;20451;-74